Time;durP1;ratioP1;P1;durP2;ratioP2;P2;SDS_P1;SDS_P2;PMS_P1;PMS_P2;Temp;Humidity;BMP_temperature;BMP_pressure;BME280_temperature;BME280_humidity;BME280_pressure;Samples;Min_cycle;Max_cycle;Signal;HPM_P1;HPM_P2
2021/10/13 00:02:20;;;;;;;29.13;26.98;;;9.30;93.20;;;;;;5028940;28;20236;-72
2021/10/13 00:04:48;;;;;;;28.40;26.50;;;9.20;93.90;;;;;;5023941;28;20202;-72
2021/10/13 00:07:15;;;;;;;27.83;25.90;;;9.10;94.20;;;;;;5029149;28;20718;-72
2021/10/13 00:09:42;;;;;;;28.95;26.80;;;9.00;93.40;;;;;;5027488;28;20533;-72
2021/10/13 00:12:09;;;;;;;28.98;26.75;;;8.80;94.50;;;;;;5032431;28;20320;-72
2021/10/13 00:14:36;;;;;;;29.58;27.40;;;8.80;94.50;;;;;;5026532;28;20668;-72
2021/10/13 00:17:05;;;;;;;29.33;27.00;;;8.70;94.40;;;;;;5028022;28;20288;-72
2021/10/13 00:19:32;;;;;;;29.35;27.10;;;8.80;94.40;;;;;;5026713;28;21021;-72
2021/10/13 00:22:01;;;;;;;28.33;26.40;;;8.80;94.70;;;;;;5028735;28;20308;-71
2021/10/13 00:24:28;;;;;;;27.48;25.48;;;8.80;94.30;;;;;;5026623;28;20763;-72
2021/10/13 00:26:55;;;;;;;29.05;27.05;;;8.90;93.90;;;;;;5028274;28;20213;-72
2021/10/13 00:29:22;;;;;;;26.70;24.70;;;8.90;93.90;;;;;;5027577;28;20208;-72
2021/10/13 00:31:49;;;;;;;28.77;26.67;;;8.80;93.60;;;;;;5027340;28;20236;-72
2021/10/13 00:34:16;;;;;;;30.92;28.15;;;8.70;94.10;;;;;;5023476;28;20197;-72
2021/10/13 00:36:43;;;;;;;28.73;26.60;;;8.60;94.60;;;;;;5028716;28;20189;-71
2021/10/13 00:39:12;;;;;;;31.15;28.85;;;8.60;94.80;;;;;;5025542;28;20978;-72
2021/10/13 00:41:39;;;;;;;29.13;27.02;;;8.50;94.80;;;;;;5026694;28;20217;-72
2021/10/13 00:44:06;;;;;;;28.33;26.23;;;8.60;94.90;;;;;;5026175;28;20193;-72
2021/10/13 00:46:33;;;;;;;28.35;26.35;;;8.70;94.50;;;;;;5028492;28;20227;-72
2021/10/13 00:49:01;;;;;;;30.75;28.48;;;8.70;94.10;;;;;;5025135;28;20235;-72
2021/10/13 00:51:30;;;;;;;26.90;24.98;;;8.80;94.00;;;;;;5027881;28;20225;-72
2021/10/13 00:53:57;;;;;;;28.33;26.40;;;8.70;94.00;;;;;;5025573;28;20254;-71
2021/10/13 00:56:26;;;;;;;31.33;29.02;;;8.60;94.50;;;;;;5028603;28;20284;-70
2021/10/13 00:58:53;;;;;;;29.40;27.30;;;8.60;94.50;;;;;;5026221;28;20289;-70
2021/10/13 01:01:25;;;;;;;27.63;25.58;;;8.50;95.10;;;;;;5026452;28;20221;-70
2021/10/13 01:04:05;;;;;;;30.17;27.80;;;8.60;94.60;;;;;;5024762;28;20209;-70
2021/10/13 01:06:41;;;;;;;28.35;26.27;;;8.50;94.70;;;;;;5027454;28;20678;-70
2021/10/13 01:09:16;;;;;;;29.00;26.90;;;8.60;94.30;;;;;;5020538;28;20201;-70
2021/10/13 01:11:58;;;;;;;28.45;26.45;;;8.60;94.60;;;;;;5022460;28;20589;-71
2021/10/13 01:14:34;;;;;;;29.00;26.80;;;8.60;94.80;;;;;;5026181;28;20201;-70
2021/10/13 01:17:11;;;;;;;28.52;26.48;;;8.80;94.10;;;;;;5026483;28;20974;-70
2021/10/13 01:19:46;;;;;;;29.77;27.48;;;8.90;93.50;;;;;;5019767;28;20200;-70
2021/10/13 01:22:37;;;;;;;29.73;27.23;;;9.00;92.80;;;;;;5022712;28;20217;-70
2021/10/13 01:25:18;;;;;;;30.77;28.48;;;8.80;92.90;;;;;;5023427;28;20244;-70
2021/10/13 01:27:56;;;;;;;27.10;25.25;;;8.80;93.50;;;;;;5027656;28;20280;-70
2021/10/13 01:30:25;;;;;;;28.50;26.40;;;8.70;92.90;;;;;;5026159;28;20678;-70
2021/10/13 01:32:58;;;;;;;29.42;27.15;;;8.70;93.50;;;;;;5031559;28;20213;-70
2021/10/13 01:35:27;;;;;;;27.67;25.77;;;8.70;93.30;;;;;;5023746;28;20197;-70
2021/10/13 01:37:58;;;;;;;27.75;25.85;;;8.70;93.40;;;;;;5028772;28;20201;-70
2021/10/13 01:40:30;;;;;;;26.27;24.48;;;8.70;92.40;;;;;;5021882;28;20204;-70
2021/10/13 01:43:01;;;;;;;26.42;24.55;;;8.80;92.00;;;;;;5026772;28;20202;-70
2021/10/13 01:45:28;;;;;;;26.88;24.90;;;8.80;91.50;;;;;;5026039;28;20212;-70
2021/10/13 01:47:57;;;;;;;26.15;24.42;;;8.80;91.20;;;;;;5025938;28;20194;-71
2021/10/13 01:50:25;;;;;;;26.52;24.67;;;8.70;91.50;;;;;;5026040;28;20576;-70
2021/10/13 01:52:54;;;;;;;24.85;23.15;;;8.90;91.00;;;;;;5026997;28;20213;-70
2021/10/13 01:55:22;;;;;;;26.25;24.40;;;8.80;91.00;;;;;;5026062;28;20209;-70
2021/10/13 01:57:52;;;;;;;24.80;23.20;;;8.60;91.40;;;;;;5027075;28;20567;-72
2021/10/13 02:00:23;;;;;;;25.83;24.13;;;8.60;91.10;;;;;;5025330;28;20217;-72
2021/10/13 02:02:51;;;;;;;24.70;23.10;;;8.50;91.40;;;;;;5027176;28;20208;-72
2021/10/13 02:05:18;;;;;;;25.45;23.55;;;8.50;91.80;;;;;;5025463;28;20194;-72
2021/10/13 02:07:48;;;;;;;24.48;22.98;;;8.50;91.80;;;;;;5029512;28;20212;-72
2021/10/13 02:10:17;;;;;;;26.15;24.48;;;8.60;91.60;;;;;;5029166;28;20209;-72
2021/10/13 02:12:47;;;;;;;26.63;24.83;;;8.70;91.50;;;;;;5030556;28;20212;-72
2021/10/13 02:15:15;;;;;;;26.73;25.02;;;8.70;91.30;;;;;;5028864;28;20228;-72
2021/10/13 02:17:46;;;;;;;27.27;25.05;;;8.80;91.20;;;;;;5031077;28;20276;-71
2021/10/13 02:20:14;;;;;;;25.98;24.25;;;8.80;91.00;;;;;;5029390;28;20201;-72
2021/10/13 02:22:44;;;;;;;27.75;25.40;;;8.80;91.00;;;;;;5030901;28;20204;-71
2021/10/13 02:25:11;;;;;;;27.13;25.27;;;8.80;90.70;;;;;;5029510;28;20197;-71
2021/10/13 02:27:44;;;;;;;27.15;25.38;;;8.80;91.00;;;;;;5029507;28;20282;-72
2021/10/13 02:30:11;;;;;;;26.05;24.10;;;8.90;90.60;;;;;;5029566;28;20259;-72
2021/10/13 02:32:38;;;;;;;27.25;25.27;;;8.70;90.70;;;;;;5030930;28;20205;-72
2021/10/13 02:35:08;;;;;;;27.10;25.05;;;8.70;91.40;;;;;;5028318;28;20233;-72
2021/10/13 02:37:35;;;;;;;27.73;25.67;;;8.50;91.60;;;;;;5030210;28;20198;-72
2021/10/13 02:40:03;;;;;;;26.70;24.90;;;8.40;91.80;;;;;;5028596;28;20567;-72
2021/10/13 02:42:29;;;;;;;26.50;24.70;;;8.40;92.40;;;;;;5028853;28;20221;-72
2021/10/13 02:44:56;;;;;;;27.52;25.63;;;8.60;91.90;;;;;;5029276;28;20208;-70
2021/10/13 02:47:30;;;;;;;27.55;25.45;;;8.50;91.90;;;;;;5029505;28;20316;-70
2021/10/13 02:50:06;;;;;;;28.75;26.65;;;8.50;92.40;;;;;;5028633;28;20209;-70
2021/10/13 02:52:42;;;;;;;28.02;26.13;;;8.60;91.90;;;;;;5021974;28;20205;-70
2021/10/13 02:55:13;;;;;;;26.55;24.67;;;8.50;91.90;;;;;;5028930;28;20831;-70
2021/10/13 02:57:44;;;;;;;27.88;25.85;;;8.50;91.80;;;;;;5030401;28;20200;-70
2021/10/13 03:00:12;;;;;;;28.45;26.45;;;8.50;91.90;;;;;;5028124;28;20600;-70
2021/10/13 03:02:56;;;;;;;28.70;26.70;;;8.40;92.20;;;;;;5029656;28;20207;-70
2021/10/13 03:05:25;;;;;;;28.48;26.45;;;8.30;92.60;;;;;;5024880;28;20208;-70
2021/10/13 03:07:56;;;;;;;32.35;29.67;;;8.30;92.40;;;;;;5030320;28;20217;-70
2021/10/13 03:10:24;;;;;;;28.38;26.27;;;8.30;92.40;;;;;;5027952;28;20193;-70
2021/10/13 03:12:54;;;;;;;29.70;27.40;;;8.30;92.60;;;;;;5029538;28;20205;-70
2021/10/13 03:15:23;;;;;;;34.13;32.03;;;8.20;92.80;;;;;;5028512;28;20193;-70
2021/10/13 03:17:54;;;;;;;32.42;29.73;;;8.20;93.00;;;;;;5028319;28;20941;-70
2021/10/13 03:20:22;;;;;;;29.23;26.90;;;8.40;92.80;;;;;;5028180;28;20201;-70
2021/10/13 03:22:51;;;;;;;29.27;27.27;;;8.40;91.90;;;;;;5029644;28;20197;-70
2021/10/13 03:25:25;;;;;;;30.80;28.70;;;8.40;91.50;;;;;;5028928;28;20201;-70
2021/10/13 03:27:52;;;;;;;29.38;27.17;;;8.30;92.10;;;;;;5029993;28;20217;-70
2021/10/13 03:30:19;;;;;;;30.42;28.23;;;8.40;92.30;;;;;;5027689;28;20200;-70
2021/10/13 03:32:47;;;;;;;29.95;27.52;;;8.50;92.00;;;;;;5028363;28;20197;-70
2021/10/13 03:35:21;;;;;;;30.02;27.92;;;8.40;92.00;;;;;;5030689;28;20201;-70
2021/10/13 03:37:48;;;;;;;32.95;30.55;;;8.40;92.00;;;;;;5027430;28;20203;-70
2021/10/13 03:40:15;;;;;;;29.40;27.20;;;8.30;92.30;;;;;;5027547;28;20201;-70
2021/10/13 03:42:44;;;;;;;34.38;31.98;;;8.20;92.40;;;;;;5026423;28;20663;-70
2021/10/13 03:45:13;;;;;;;31.38;29.02;;;8.20;92.60;;;;;;5032064;28;20197;-71
2021/10/13 03:47:41;;;;;;;31.65;29.25;;;8.30;92.70;;;;;;5029486;28;20711;-70
2021/10/13 03:50:09;;;;;;;30.83;28.33;;;8.30;92.10;;;;;;5033672;28;20298;-70
2021/10/13 03:52:36;;;;;;;30.55;28.33;;;8.30;92.60;;;;;;5028955;28;20201;-70
2021/10/13 03:55:04;;;;;;;30.58;28.33;;;8.30;92.80;;;;;;5026852;28;20201;-70
2021/10/13 03:57:31;;;;;;;30.63;28.40;;;8.40;92.50;;;;;;5028177;28;20555;-70
2021/10/13 03:59:59;;;;;;;29.92;27.75;;;8.40;92.00;;;;;;5026682;28;20198;-70
2021/10/13 04:02:26;;;;;;;29.92;27.63;;;8.40;91.90;;;;;;5028846;28;20215;-70
2021/10/13 04:04:53;;;;;;;28.60;26.60;;;8.40;91.80;;;;;;5026470;28;20561;-71
2021/10/13 04:07:20;;;;;;;31.27;28.90;;;8.40;91.80;;;;;;5027801;28;20567;-72
2021/10/13 04:09:47;;;;;;;31.48;29.38;;;8.50;91.60;;;;;;5027211;28;20289;-71
2021/10/13 04:12:14;;;;;;;29.77;27.58;;;8.50;91.40;;;;;;5028188;28;20307;-70
2021/10/13 04:14:41;;;;;;;30.05;27.77;;;8.50;91.10;;;;;;5026838;28;20189;-70
2021/10/13 04:17:09;;;;;;;30.83;28.55;;;8.40;91.10;;;;;;5028688;28;20193;-70
2021/10/13 04:19:36;;;;;;;29.73;27.45;;;8.40;91.50;;;;;;5027038;28;20197;-71
2021/10/13 04:22:04;;;;;;;29.42;27.23;;;8.40;91.80;;;;;;5029694;28;20252;-71
2021/10/13 04:24:31;;;;;;;28.77;26.58;;;8.30;92.00;;;;;;5026657;28;20209;-71
2021/10/13 04:26:58;;;;;;;29.85;27.63;;;8.40;91.80;;;;;;5028031;28;20279;-71
2021/10/13 04:29:25;;;;;;;34.25;31.30;;;8.40;91.50;;;;;;5025502;28;20197;-71
2021/10/13 04:31:51;;;;;;;30.02;27.77;;;8.40;91.60;;;;;;5028385;28;20224;-71
2021/10/13 04:34:20;;;;;;;31.50;28.98;;;8.40;91.90;;;;;;5025272;28;20201;-71
2021/10/13 04:36:47;;;;;;;30.17;27.90;;;8.40;91.90;;;;;;5028656;28;20193;-70
2021/10/13 04:39:14;;;;;;;30.38;27.98;;;8.30;92.40;;;;;;5014774;28;20776;-69
2021/10/13 04:41:40;;;;;;;31.48;28.83;;;8.40;92.50;;;;;;5028428;28;20221;-70
2021/10/13 04:44:07;;;;;;;31.10;28.80;;;8.40;92.20;;;;;;5024992;28;20201;-70
2021/10/13 04:46:34;;;;;;;32.15;29.80;;;8.60;91.30;;;;;;5023149;28;20296;-70
2021/10/13 04:49:01;;;;;;;31.55;29.35;;;8.60;91.20;;;;;;5026291;28;20284;-70
2021/10/13 04:51:30;;;;;;;31.27;28.73;;;8.60;91.10;;;;;;5028711;28;20213;-70
2021/10/13 04:53:57;;;;;;;31.20;28.70;;;8.60;91.30;;;;;;5022185;28;20228;-70
2021/10/13 04:56:23;;;;;;;31.02;28.73;;;8.60;91.50;;;;;;5027427;28;20205;-70
2021/10/13 04:58:50;;;;;;;34.58;31.92;;;8.50;91.40;;;;;;5024588;28;20189;-69
2021/10/13 05:01:17;;;;;;;33.58;30.67;;;8.30;91.80;;;;;;5026684;28;20308;-70
2021/10/13 05:03:44;;;;;;;32.40;29.95;;;8.30;92.40;;;;;;5024904;28;20202;-70
2021/10/13 05:06:11;;;;;;;32.88;30.15;;;8.30;92.60;;;;;;5027518;28;20734;-70
2021/10/13 05:08:39;;;;;;;31.45;29.27;;;8.40;92.50;;;;;;5025066;28;20213;-70
2021/10/13 05:11:06;;;;;;;31.77;29.25;;;8.40;91.90;;;;;;5027154;28;20332;-70
2021/10/13 05:13:33;;;;;;;32.92;30.52;;;8.40;91.60;;;;;;5023548;28;20197;-70
2021/10/13 05:16:00;;;;;;;31.23;28.80;;;8.40;91.50;;;;;;5024479;28;20193;-70
2021/10/13 05:18:27;;;;;;;28.98;26.98;;;8.40;91.30;;;;;;5026416;28;20284;-70
2021/10/13 05:20:54;;;;;;;32.15;29.70;;;8.40;91.00;;;;;;5027775;28;20225;-70
2021/10/13 05:23:21;;;;;;;30.88;28.40;;;8.40;90.90;;;;;;5026843;28;20209;-70
2021/10/13 05:25:49;;;;;;;30.35;27.95;;;8.40;91.10;;;;;;5029943;28;20200;-70
2021/10/13 05:28:16;;;;;;;29.95;27.83;;;8.40;91.20;;;;;;5030525;28;22406;-70
2021/10/13 05:30:43;;;;;;;31.08;29.08;;;8.40;91.30;;;;;;5022958;28;20304;-69
2021/10/13 05:33:10;;;;;;;30.05;27.75;;;8.40;91.50;;;;;;5022561;28;20791;-69
2021/10/13 05:35:37;;;;;;;29.80;27.70;;;8.50;91.40;;;;;;5025829;28;20197;-70
2021/10/13 05:38:04;;;;;;;29.05;26.75;;;8.50;91.40;;;;;;5027785;28;20197;-70
2021/10/13 05:40:31;;;;;;;27.67;25.77;;;8.60;91.30;;;;;;5028861;28;20221;-71
2021/10/13 05:42:59;;;;;;;29.77;27.73;;;8.60;91.20;;;;;;5031760;28;20563;-70
2021/10/13 05:45:26;;;;;;;28.38;26.27;;;8.60;91.00;;;;;;5029781;28;20264;-70
2021/10/13 05:47:53;;;;;;;36.53;33.83;;;8.60;90.90;;;;;;5030557;28;20727;-70
2021/10/13 05:50:20;;;;;;;30.88;28.70;;;8.60;91.10;;;;;;5029636;28;20205;-70
2021/10/13 05:52:46;;;;;;;31.95;29.85;;;8.70;91.10;;;;;;5030408;28;20659;-70
2021/10/13 05:55:13;;;;;;;28.77;26.88;;;8.70;91.00;;;;;;5030728;28;20207;-70
2021/10/13 05:57:40;;;;;;;30.00;27.77;;;8.70;91.00;;;;;;5031026;28;20382;-70
2021/10/13 06:00:10;;;;;;;32.50;29.83;;;8.70;90.90;;;;;;5029070;28;20198;-70
2021/10/13 06:02:37;;;;;;;31.08;28.85;;;8.70;91.10;;;;;;5029097;28;20193;-70
2021/10/13 06:05:05;;;;;;;31.88;29.27;;;8.70;91.00;;;;;;5030388;28;20216;-71
2021/10/13 06:07:32;;;;;;;31.95;29.50;;;8.70;91.00;;;;;;5030508;28;20710;-70
2021/10/13 06:09:59;;;;;;;30.70;28.50;;;8.80;91.20;;;;;;5029441;28;20189;-70
2021/10/13 06:12:26;;;;;;;32.28;29.73;;;8.80;91.00;;;;;;5027620;28;20227;-70
2021/10/13 06:14:53;;;;;;;31.67;29.30;;;8.80;91.20;;;;;;5029419;28;20292;-70
2021/10/13 06:17:21;;;;;;;31.40;29.23;;;8.80;91.00;;;;;;5030504;28;20197;-70
2021/10/13 06:19:48;;;;;;;31.23;29.08;;;9.00;90.70;;;;;;5029314;28;20201;-71
2021/10/13 06:22:15;;;;;;;32.40;29.75;;;9.00;90.50;;;;;;5030176;28;20222;-73
2021/10/13 06:24:42;;;;;;;33.05;30.75;;;9.00;90.50;;;;;;5028478;28;20193;-70
2021/10/13 06:27:09;;;;;;;32.75;29.88;;;9.10;90.30;;;;;;5029474;28;20201;-70
2021/10/13 06:29:36;;;;;;;33.95;31.38;;;9.10;90.20;;;;;;5028780;28;20208;-72
2021/10/13 06:32:03;;;;;;;29.48;27.48;;;9.20;89.70;;;;;;5029352;28;20213;-71
2021/10/13 06:34:31;;;;;;;34.05;31.45;;;9.30;89.50;;;;;;5028740;28;20202;-71
2021/10/13 06:36:58;;;;;;;33.00;30.50;;;9.30;89.30;;;;;;5031489;28;20213;-72
2021/10/13 06:39:25;;;;;;;34.22;31.52;;;9.30;89.30;;;;;;5020547;28;20459;-72
2021/10/13 06:41:51;;;;;;;32.47;29.73;;;9.30;89.30;;;;;;5029079;28;20948;-72
2021/10/13 06:44:18;;;;;;;32.93;30.43;;;9.40;89.20;;;;;;5025127;28;20974;-71
2021/10/13 06:46:45;;;;;;;33.70;31.23;;;9.50;88.90;;;;;;5032751;28;20482;-71
2021/10/13 06:49:12;;;;;;;31.27;28.80;;;9.60;90.20;;;;;;5027277;28;20480;-71
2021/10/13 06:51:42;;;;;;;32.33;30.20;;;9.70;88.70;;;;;;5023778;28;21063;-71
2021/10/13 06:54:09;;;;;;;31.90;29.50;;;9.50;86.50;;;;;;5024155;28;20468;-70
2021/10/13 06:56:36;;;;;;;31.63;29.43;;;9.40;86.60;;;;;;5025338;28;20481;-70
2021/10/13 06:59:03;;;;;;;32.50;30.13;;;9.40;87.20;;;;;;5023953;28;20964;-70
2021/10/13 07:01:30;;;;;;;34.30;31.80;;;9.40;87.70;;;;;;5024950;28;20483;-70
2021/10/13 07:03:57;;;;;;;35.57;32.93;;;9.50;88.20;;;;;;5023634;28;20464;-70
2021/10/13 07:06:24;;;;;;;35.23;32.73;;;9.70;88.10;;;;;;5028068;28;20987;-70
2021/10/13 07:08:52;;;;;;;32.90;30.60;;;9.80;87.60;;;;;;5029450;28;20479;-70
2021/10/13 07:11:21;;;;;;;32.07;29.67;;;9.90;87.40;;;;;;5029455;28;20486;-71
2021/10/13 07:13:48;;;;;;;32.73;30.40;;;10.00;87.30;;;;;;5027758;28;20530;-69
2021/10/13 07:16:15;;;;;;;31.93;29.53;;;10.00;87.70;;;;;;5030118;28;20941;-70
2021/10/13 07:18:42;;;;;;;29.47;27.57;;;10.00;87.80;;;;;;5026446;28;20846;-70
2021/10/13 07:21:09;;;;;;;31.60;29.50;;;10.10;87.30;;;;;;5029208;28;20476;-71
2021/10/13 07:23:36;;;;;;;31.77;29.60;;;10.00;87.70;;;;;;5026911;28;21241;-70
2021/10/13 07:26:04;;;;;;;33.37;30.97;;;10.00;87.80;;;;;;5031783;28;20499;-70
2021/10/13 07:28:32;;;;;;;32.43;30.10;;;10.00;87.30;;;;;;5026816;28;20467;-70
2021/10/13 07:30:59;;;;;;;32.10;29.90;;;10.00;87.00;;;;;;5028681;28;20484;-70
2021/10/13 07:33:26;;;;;;;32.63;30.23;;;10.00;86.60;;;;;;5019066;28;20494;-70
2021/10/13 07:35:53;;;;;;;31.17;28.97;;;10.00;87.20;;;;;;5021099;28;20462;-71
2021/10/13 07:38:20;;;;;;;31.47;29.00;;;10.20;86.90;;;;;;5023151;28;20462;-71
2021/10/13 07:40:49;;;;;;;31.40;29.27;;;10.40;89.00;;;;;;5025044;28;20827;-71
2021/10/13 07:43:17;;;;;;;31.40;29.37;;;10.60;88.80;;;;;;5022904;28;20468;-71
2021/10/13 07:45:44;;;;;;;31.40;29.20;;;10.70;86.20;;;;;;5024368;28;20510;-71
2021/10/13 07:48:11;;;;;;;33.37;31.07;;;10.90;84.60;;;;;;5025112;28;20490;-71
2021/10/13 07:50:38;;;;;;;33.13;30.83;;;10.90;84.10;;;;;;5027963;28;20515;-71
2021/10/13 07:53:05;;;;;;;30.93;28.93;;;10.90;83.50;;;;;;5028745;28;20474;-71
2021/10/13 07:55:32;;;;;;;34.07;31.63;;;11.00;84.50;;;;;;5027056;28;20456;-71
2021/10/13 07:57:59;;;;;;;32.20;29.90;;;11.10;85.50;;;;;;5027741;28;20534;-71
2021/10/13 08:00:27;;;;;;;31.60;29.40;;;11.30;84.60;;;;;;5029171;28;21037;-71
2021/10/13 08:02:54;;;;;;;32.90;30.50;;;11.60;82.50;;;;;;5026414;28;20826;-71
2021/10/13 08:05:21;;;;;;;32.47;30.27;;;11.80;82.10;;;;;;5023606;28;20463;-71
2021/10/13 08:07:48;;;;;;;32.33;30.03;;;11.90;80.90;;;;;;5028335;28;20989;-71
2021/10/13 08:10:16;;;;;;;31.10;29.00;;;12.20;79.80;;;;;;5025611;28;20834;-71
2021/10/13 08:12:43;;;;;;;31.47;29.27;;;12.30;78.20;;;;;;5028410;28;20456;-71
2021/10/13 08:15:11;;;;;;;34.10;31.73;;;12.30;79.00;;;;;;5025716;28;20979;-71
2021/10/13 08:17:40;;;;;;;32.30;29.90;;;12.40;78.30;;;;;;5028498;28;20464;-71
2021/10/13 08:20:08;;;;;;;31.77;29.30;;;12.50;78.10;;;;;;5024894;28;20466;-71
2021/10/13 08:22:35;;;;;;;30.70;28.43;;;12.80;77.40;;;;;;5028397;28;20460;-71
2021/10/13 08:25:02;;;;;;;29.93;28.03;;;12.90;76.90;;;;;;5026739;28;20543;-71
2021/10/13 08:27:29;;;;;;;32.70;30.60;;;13.00;76.20;;;;;;5027547;28;20470;-71
2021/10/13 08:29:56;;;;;;;31.80;28.90;;;13.10;75.80;;;;;;5023364;28;20983;-70
2021/10/13 08:32:23;;;;;;;31.00;29.10;;;13.10;76.50;;;;;;5024182;28;20571;-70
2021/10/13 08:34:51;;;;;;;31.60;29.50;;;13.00;75.10;;;;;;5026901;28;20474;-74
2021/10/13 08:37:18;;;;;;;32.73;30.53;;;13.00;75.70;;;;;;5028712;28;20550;-70
2021/10/13 08:39:45;;;;;;;32.30;30.03;;;12.80;74.50;;;;;;5025403;28;20464;-71
2021/10/13 08:42:12;;;;;;;31.77;29.77;;;12.80;74.00;;;;;;5027411;28;20484;-70
2021/10/13 08:44:41;;;;;;;35.20;32.90;;;12.30;75.50;;;;;;5024458;28;20456;-71
2021/10/13 08:47:11;;;;;;;35.57;32.47;;;12.20;76.70;;;;;;5026283;28;20989;-70
2021/10/13 08:49:39;;;;;;;33.63;31.10;;;12.00;76.00;;;;;;5026256;28;20479;-70
2021/10/13 08:52:09;;;;;;;33.57;30.90;;;12.00;77.00;;;;;;5028072;28;20522;-71
2021/10/13 08:54:37;;;;;;;34.20;31.60;;;12.00;76.60;;;;;;5017782;28;20456;-71
2021/10/13 08:57:16;;;;;;;33.70;31.20;;;11.80;77.20;;;;;;5026649;28;20472;-70
2021/10/13 08:59:44;;;;;;;36.57;33.77;;;11.70;78.30;;;;;;5027804;28;20827;-70
2021/10/13 09:02:11;;;;;;;35.63;32.93;;;11.70;78.70;;;;;;5027490;28;21009;-70
2021/10/13 09:04:39;;;;;;;35.70;33.10;;;11.30;78.10;;;;;;5026888;28;20489;-70
2021/10/13 09:07:06;;;;;;;32.70;30.23;;;11.20;79.50;;;;;;5028382;28;20452;-71
2021/10/13 09:09:49;;;;;;;36.07;33.17;;;11.30;78.60;;;;;;5027050;28;21156;-71
2021/10/13 09:12:29;;;;;;;35.07;32.47;;;11.50;78.90;;;;;;5028354;28;20558;-70
2021/10/13 09:15:04;;;;;;;34.73;32.00;;;11.30;78.40;;;;;;5025001;28;20558;-70
2021/10/13 09:17:31;;;;;;;35.73;33.13;;;11.10;78.90;;;;;;5028002;28;20443;-71
2021/10/13 09:19:58;;;;;;;35.00;32.40;;;11.30;79.40;;;;;;5026667;28;20444;-71
2021/10/13 09:22:25;;;;;;;35.50;32.30;;;11.50;78.50;;;;;;5020270;28;20483;-73
2021/10/13 09:24:56;;;;;;;34.50;31.80;;;11.70;78.50;;;;;;5025461;28;20459;-73
2021/10/13 09:27:25;;;;;;;30.23;28.13;;;11.70;78.10;;;;;;5027365;28;20470;-72
2021/10/13 09:29:58;;;;;;;30.73;28.43;;;11.50;77.80;;;;;;5025672;28;22167;-72
2021/10/13 09:32:26;;;;;;;27.10;25.20;;;11.20;77.60;;;;;;5027236;28;20889;-72
2021/10/13 09:34:54;;;;;;;27.90;26.20;;;10.80;78.40;;;;;;5025913;28;20464;-72
2021/10/13 09:37:22;;;;;;;27.03;25.30;;;10.80;78.10;;;;;;5026528;28;20463;-72
2021/10/13 09:39:58;;;;;;;28.60;27.00;;;11.10;77.90;;;;;;5025447;28;20456;-71
2021/10/13 09:42:36;;;;;;;30.40;28.40;;;11.10;77.40;;;;;;5026089;28;21000;-71
2021/10/13 09:45:03;;;;;;;28.37;26.37;;;11.20;78.30;;;;;;5025367;28;20454;-73
2021/10/13 09:47:31;;;;;;;26.47;24.77;;;11.40;78.60;;;;;;5027930;28;20452;-72
2021/10/13 09:49:58;;;;;;;26.80;24.93;;;11.80;77.70;;;;;;5023911;28;21103;-73
2021/10/13 09:52:27;;;;;;;28.50;26.73;;;12.10;76.80;;;;;;5020785;28;20490;-72
2021/10/13 09:55:00;;;;;;;28.50;26.70;;;12.40;75.70;;;;;;5025964;28;20460;-75
2021/10/13 09:57:29;;;;;;;27.27;25.37;;;12.30;72.20;;;;;;5021375;28;20467;-72
2021/10/13 09:59:58;;;;;;;28.03;25.83;;;12.30;73.40;;;;;;5025743;28;20448;-74
2021/10/13 10:02:28;;;;;;;28.10;26.20;;;12.40;74.80;;;;;;5024296;28;20838;-73
2021/10/13 10:04:56;;;;;;;29.10;27.00;;;12.50;73.80;;;;;;5024799;28;20464;-71
2021/10/13 10:07:23;;;;;;;31.60;29.80;;;12.30;75.00;;;;;;5027092;28;20456;-72
2021/10/13 10:10:15;;;;;;;30.57;28.57;;;12.30;74.90;;;;;;5022743;28;20484;-72
2021/10/13 10:13:04;;;;;;;30.27;28.27;;;12.50;74.50;;;;;;5031438;28;21065;-73
2021/10/13 10:15:33;;;;;;;30.90;28.90;;;12.40;74.70;;;;;;5028084;28;20458;-73
2021/10/13 10:18:01;;;;;;;30.00;28.07;;;12.60;75.00;;;;;;5025392;28;20800;-71
2021/10/13 10:20:40;;;;;;;29.20;27.47;;;12.80;74.00;;;;;;5023923;28;20472;-71
2021/10/13 10:23:26;;;;;;;29.50;27.50;;;13.30;72.80;;;;;;5025312;28;20579;-71
2021/10/13 10:25:55;;;;;;;29.10;27.20;;;13.60;71.40;;;;;;5024926;28;20463;-71
2021/10/13 10:28:54;;;;;;;30.70;28.60;;;13.90;70.70;;;;;;5028114;28;20954;-70
2021/10/13 10:31:44;;;;;;;31.30;29.20;;;14.30;70.30;;;;;;5024529;28;20470;-76
2021/10/13 10:34:19;;;;;;;30.33;28.40;;;14.40;67.90;;;;;;5027394;28;20539;-72
2021/10/13 10:37:10;;;;;;;30.63;28.73;;;14.20;67.30;;;;;;5030271;28;20821;-74
2021/10/13 10:39:56;;;;;;;30.50;28.60;;;13.60;67.30;;;;;;5026015;28;20455;-71
2021/10/13 10:42:47;;;;;;;28.17;26.50;;;13.10;68.10;;;;;;5029626;28;20471;-72
2021/10/13 10:45:17;;;;;;;31.10;29.10;;;12.70;70.20;;;;;;5025506;28;20454;-71
2021/10/13 10:48:12;;;;;;;32.67;30.37;;;12.30;71.00;;;;;;5028732;28;20455;-71
2021/10/13 10:50:46;;;;;;;30.50;28.27;;;11.80;73.80;;;;;;4993009;28;20831;-71
2021/10/13 10:53:21;;;;;;;30.43;28.37;;;12.00;74.10;;;;;;5029542;28;20511;-71
2021/10/13 10:55:50;;;;;;;30.27;28.17;;;12.30;73.50;;;;;;5029020;28;20467;-71
2021/10/13 10:58:22;;;;;;;31.30;29.20;;;12.40;72.90;;;;;;5023404;28;21110;-71
2021/10/13 11:01:05;;;;;;;35.00;32.60;;;12.10;75.00;;;;;;5028151;28;20514;-72
2021/10/13 11:03:37;;;;;;;33.40;31.10;;;11.50;77.50;;;;;;5023070;28;20783;-71
2021/10/13 11:06:13;;;;;;;32.43;30.40;;;11.40;78.20;;;;;;5030426;28;20543;-72
2021/10/13 11:08:50;;;;;;;31.37;28.97;;;10.90;79.50;;;;;;5027651;28;20464;-72
2021/10/13 11:11:18;;;;;;;33.53;31.10;;;10.90;78.20;;;;;;5027459;28;20480;-72
2021/10/13 11:14:04;;;;;;;32.70;30.70;;;11.00;78.30;;;;;;5027393;28;20457;-72
2021/10/13 11:16:33;;;;;;;29.93;27.93;;;11.20;78.40;;;;;;5028826;28;20555;-71
2021/10/13 11:19:12;;;;;;;30.80;29.00;;;11.50;74.50;;;;;;5028236;28;21019;-71
2021/10/13 11:21:40;;;;;;;29.20;27.50;;;11.60;74.50;;;;;;5022834;28;20574;-72
2021/10/13 11:24:07;;;;;;;29.47;27.47;;;12.00;73.70;;;;;;5022454;28;20459;-73
2021/10/13 11:26:34;;;;;;;27.00;25.50;;;12.10;73.40;;;;;;5025467;28;20466;-72
2021/10/13 11:29:03;;;;;;;28.30;26.50;;;12.10;71.80;;;;;;5022512;28;21049;-72
2021/10/13 11:31:30;;;;;;;28.10;26.40;;;12.00;72.10;;;;;;5020774;28;20619;-72
2021/10/13 11:34:08;;;;;;;27.70;26.20;;;12.30;69.60;;;;;;5028646;28;20482;-72
2021/10/13 11:36:50;;;;;;;29.53;27.10;;;12.20;70.20;;;;;;5022742;28;20460;-72
2021/10/13 11:39:25;;;;;;;29.17;26.90;;;12.10;71.60;;;;;;5023148;28;20825;-72
2021/10/13 11:41:53;;;;;;;27.60;25.73;;;11.90;73.90;;;;;;5022214;28;20481;-71
2021/10/13 11:44:24;;;;;;;30.90;29.10;;;11.70;75.50;;;;;;5019086;28;20551;-72
2021/10/13 11:47:02;;;;;;;29.70;27.07;;;11.50;76.70;;;;;;5018962;28;20474;-72
2021/10/13 11:49:30;;;;;;;29.47;27.47;;;11.50;77.80;;;;;;5024045;28;20849;-72
2021/10/13 11:52:09;;;;;;;27.73;25.97;;;11.70;77.30;;;;;;5021276;28;20488;-72
2021/10/13 11:54:36;;;;;;;28.80;27.07;;;11.90;76.90;;;;;;5022740;28;20460;-72
2021/10/13 11:57:03;;;;;;;26.47;24.40;;;11.60;76.40;;;;;;5023353;28;20469;-72
2021/10/13 11:59:31;;;;;;;26.77;24.87;;;11.50;76.70;;;;;;5024035;28;20460;-72
2021/10/13 12:02:14;;;;;;;26.47;25.00;;;11.80;76.20;;;;;;5023452;28;20471;-72
2021/10/13 12:04:54;;;;;;;27.60;25.53;;;12.20;74.60;;;;;;5024364;28;20460;-72
2021/10/13 12:07:23;;;;;;;23.47;22.33;;;12.40;72.50;;;;;;5022434;28;20447;-73
2021/10/13 12:09:58;;;;;;;25.77;24.17;;;12.50;70.30;;;;;;5025438;28;20984;-73
2021/10/13 12:12:26;;;;;;;25.33;23.93;;;12.60;70.20;;;;;;5022413;28;20479;-72
2021/10/13 12:14:55;;;;;;;25.07;23.70;;;12.70;70.80;;;;;;5021305;28;20455;-73
2021/10/13 12:17:27;;;;;;;24.27;22.97;;;13.00;72.10;;;;;;5022369;28;20467;-72
2021/10/13 12:19:54;;;;;;;26.10;24.70;;;13.40;70.30;;;;;;5021497;28;20456;-73
2021/10/13 12:22:21;;;;;;;25.07;23.77;;;13.70;69.00;;;;;;5020517;28;20506;-73
2021/10/13 12:24:48;;;;;;;24.57;23.27;;;13.70;67.40;;;;;;5026235;28;20479;-73
2021/10/13 12:27:27;;;;;;;24.87;23.13;;;13.60;68.30;;;;;;5023725;28;20964;-73
2021/10/13 12:29:55;;;;;;;24.70;23.40;;;13.80;67.60;;;;;;5018490;28;20487;-73
2021/10/13 12:32:24;;;;;;;25.10;23.70;;;13.80;66.20;;;;;;5025419;28;20499;-73
2021/10/13 12:34:51;;;;;;;25.10;23.60;;;13.90;66.70;;;;;;5018233;28;20677;-73
2021/10/13 12:37:18;;;;;;;25.20;23.80;;;14.10;65.00;;;;;;5022026;28;20454;-73
2021/10/13 12:39:45;;;;;;;24.17;22.80;;;13.80;65.80;;;;;;5025693;28;20466;-72
2021/10/13 12:42:14;;;;;;;24.40;23.10;;;13.70;65.80;;;;;;5015909;28;20479;-73
2021/10/13 12:44:44;;;;;;;24.70;23.30;;;13.70;66.10;;;;;;5021524;28;20477;-73
2021/10/13 12:47:15;;;;;;;24.90;23.60;;;13.70;65.30;;;;;;5020737;28;20983;-73